Time;durP1;ratioP1;P1;durP2;ratioP2;P2;SDS_P1;SDS_P2;PMS_P1;PMS_P2;Temp;Humidity;BMP_temperature;BMP_pressure;BME280_temperature;BME280_humidity;BME280_pressure;Samples;Min_cycle;Max_cycle;Signal;HPM_P1;HPM_P2
2022/04/25 00:02:14;;;;;;;0.90;0.20;;;;;;;10.90;90.25;94311.69;4377975;32;20195;-56
2022/04/25 00:04:42;;;;;;;0.10;0.10;;;;;;;10.61;89.83;94320.41;4388148;32;20200;-54
2022/04/25 00:07:07;;;;;;;2.00;0.20;;;;;;;10.88;90.58;94316.53;4389422;32;20199;-58
2022/04/25 00:09:34;;;;;;;0.30;0.30;;;;;;;10.60;90.97;94319.62;4390121;32;20185;-54
2022/04/25 00:12:02;;;;;;;0.53;0.17;;;;;;;10.82;89.98;94315.94;4375549;32;20233;-56
2022/04/25 00:14:29;;;;;;;0.10;0.10;;;;;;;11.13;90.22;94310.34;4388018;32;20193;-54
2022/04/25 00:16:56;;;;;;;0.10;0.10;;;;;;;11.32;88.93;94312.56;4387650;32;20271;-54
2022/04/25 00:19:23;;;;;;;0.30;0.10;;;;;;;11.49;88.49;94309.00;4384333;32;20228;-55
2022/04/25 00:21:51;;;;;;;0.10;0.10;;;;;;;11.24;88.05;94310.72;4356171;32;20205;-54
2022/04/25 00:24:18;;;;;;;0.20;0.20;;;;;;;11.02;88.99;94309.91;4376581;32;20184;-57
2022/04/25 00:26:45;;;;;;;0.10;0.10;;;;;;;11.12;89.84;94310.66;4390799;32;20188;-53
2022/04/25 00:29:12;;;;;;;0.10;0.10;;;;;;;11.18;88.45;94318.13;4392016;32;20204;-57
2022/04/25 00:31:41;;;;;;;0.13;0.13;;;;;;;11.00;88.22;94320.09;4391037;32;20191;-55
2022/04/25 00:34:07;;;;;;;0.10;0.10;;;;;;;11.22;88.28;94312.94;4379038;32;20266;-55
2022/04/25 00:36:34;;;;;;;0.30;0.10;;;;;;;11.44;88.31;94314.50;4401045;32;20189;-55
2022/04/25 00:38:59;;;;;;;0.10;0.10;;;;;;;11.33;87.15;94320.22;4386103;32;20218;-55
2022/04/25 00:41:27;;;;;;;0.20;0.10;;;;;;;11.23;88.72;94314.47;4390432;32;20260;-56
2022/04/25 00:44:17;;;;;;;0.10;0.10;;;;;;;11.17;88.44;94315.78;4391507;32;20240;-56
2022/04/25 00:46:47;;;;;;;0.10;0.10;;;;;;;11.03;87.48;94305.38;4389342;32;20196;-53
2022/04/25 00:49:14;;;;;;;1.27;0.20;;;;;;;10.90;89.25;94312.47;4390721;32;20192;-57
2022/04/25 00:51:41;;;;;;;0.20;0.20;;;;;;;10.66;89.50;94318.34;4375008;32;20192;-56
2022/04/25 00:54:06;;;;;;;0.70;0.30;;;;;;;10.98;88.74;94314.31;4375487;32;20188;-57
2022/04/25 00:56:36;;;;;;;0.10;0.10;;;;;;;11.30;89.23;94312.88;4378356;32;20203;-54
2022/04/25 00:59:04;;;;;;;0.13;0.13;;;;;;;10.99;88.30;94310.56;4359833;32;20193;-56
2022/04/25 01:01:31;;;;;;;0.33;0.33;;;;;;;11.32;87.83;94312.56;4374016;32;20240;-54
2022/04/25 01:03:59;;;;;;;0.10;0.10;;;;;;;11.29;86.70;94310.53;4379569;32;20288;-53
2022/04/25 01:06:26;;;;;;;0.40;0.10;;;;;;;11.17;87.18;94311.25;4368656;32;20268;-55
2022/04/25 01:08:52;;;;;;;0.10;0.10;;;;;;;11.11;88.94;94311.75;4388473;32;20246;-56
2022/04/25 01:11:23;;;;;;;0.20;0.20;;;;;;;11.15;87.23;94313.44;4389788;32;20192;-57
2022/04/25 01:13:49;;;;;;;0.20;0.20;;;;;;;11.33;88.75;94314.13;4364236;32;20196;-54
2022/04/25 01:16:17;;;;;;;0.20;0.20;;;;;;;11.40;88.02;94317.06;4378070;32;20230;-55
2022/04/25 01:18:43;;;;;;;0.10;0.10;;;;;;;11.11;87.10;94317.06;4389990;32;20218;-57
2022/04/25 01:21:15;;;;;;;0.03;0.03;;;;;;;11.28;87.47;94323.03;4399486;32;20199;-52
2022/04/25 01:29:19;;;;;;;0.10;0.10;;;;;;;11.03;88.19;94316.78;4392445;32;20203;-57
2022/04/25 01:31:48;;;;;;;0.10;0.10;;;;;;;10.98;88.26;94319.62;4380622;32;20196;-55
2022/04/25 01:34:15;;;;;;;0.40;0.00;;;;;;;10.86;87.86;94327.47;4390675;32;20188;-55
2022/04/25 01:36:40;;;;;;;0.17;0.17;;;;;;;11.02;87.46;94325.84;4370853;32;20192;-55
2022/04/25 01:39:05;;;;;;;0.00;0.00;;;;;;;11.05;87.59;94331.59;4375866;32;20230;-56
2022/04/25 01:41:35;;;;;;;0.20;0.20;;;;;;;11.00;87.45;94328.06;4386133;32;20210;-56
2022/04/25 01:44:02;;;;;;;0.10;0.10;;;;;;;10.87;88.79;94329.03;4362929;32;20237;-57
2022/04/25 01:46:27;;;;;;;0.83;0.20;;;;;;;10.83;88.99;94328.09;4344471;32;20211;-55
2022/04/25 01:48:53;;;;;;;1.40;0.10;;;;;;;10.89;87.91;94332.16;4385746;32;20200;-55
2022/04/25 01:51:20;;;;;;;0.10;0.10;;;;;;;10.97;87.94;94326.03;4387719;32;20200;-55
2022/04/25 01:53:47;;;;;;;0.77;0.00;;;;;;;11.02;88.15;94328.50;4359524;32;20224;-54
2022/04/25 01:56:13;;;;;;;0.07;0.07;;;;;;;11.26;87.78;94324.47;4385221;32;20245;-51
2022/04/25 01:58:40;;;;;;;0.07;0.07;;;;;;;11.19;86.29;94329.50;4389942;32;20207;-57
2022/04/25 02:01:09;;;;;;;0.20;0.20;;;;;;;11.02;87.11;94330.37;4391191;32;20233;-53
2022/04/25 02:03:35;;;;;;;0.10;0.00;;;;;;;11.10;88.69;94331.44;4388199;32;20181;-57
2022/04/25 02:06:16;;;;;;;0.77;0.20;;;;;;;10.87;86.95;94326.38;4377872;32;20192;-55
2022/04/25 02:08:43;;;;;;;0.27;0.10;;;;;;;10.95;87.82;94328.22;4391999;32;20254;-55
2022/04/25 02:11:21;;;;;;;1.47;0.20;;;;;;;11.01;88.16;94326.94;4391177;32;20184;-57
2022/04/25 02:13:51;;;;;;;1.07;0.10;;;;;;;11.14;88.25;94332.34;4379886;32;20218;-54
2022/04/25 02:16:21;;;;;;;0.00;0.00;;;;;;;11.23;87.25;94333.06;4389799;32;20219;-54
2022/04/25 02:18:49;;;;;;;0.23;0.20;;;;;;;11.22;86.89;94334.19;4371893;32;20248;-56
2022/04/25 02:21:15;;;;;;;0.30;0.20;;;;;;;11.28;86.71;94332.88;4374854;32;20195;-55
2022/04/25 02:23:42;;;;;;;0.10;0.10;;;;;;;11.20;86.75;94341.69;4376482;32;20202;-57
2022/04/25 02:26:10;;;;;;;0.10;0.10;;;;;;;10.89;86.66;94339.34;4368296;32;20237;-53
2022/04/25 02:28:38;;;;;;;0.10;0.10;;;;;;;11.06;86.58;94336.59;4366287;32;20196;-56
2022/04/25 02:31:08;;;;;;;1.00;0.30;;;;;;;11.24;87.30;94343.38;4363888;32;20199;-57
2022/04/25 02:33:37;;;;;;;0.10;0.10;;;;;;;11.16;86.46;94338.13;4373671;32;20196;-58
2022/04/25 02:36:29;;;;;;;0.10;0.10;;;;;;;11.02;85.80;94341.75;4386151;32;20191;-57
2022/04/25 02:38:55;;;;;;;0.03;0.03;;;;;;;10.89;87.30;94348.06;4381403;32;20288;-57
2022/04/25 02:41:22;;;;;;;0.10;0.10;;;;;;;10.98;86.01;94348.03;4380152;32;20215;-58
2022/04/25 02:43:47;;;;;;;0.20;0.17;;;;;;;11.01;87.52;94353.47;4379209;32;20196;-57
2022/04/25 02:46:16;;;;;;;0.30;0.10;;;;;;;10.77;86.87;94358.59;4387562;32;20253;-52
2022/04/25 02:48:44;;;;;;;0.53;0.30;;;;;;;10.99;88.06;94346.94;4336360;32;20295;-55
2022/04/25 02:51:11;;;;;;;0.87;0.10;;;;;;;10.82;86.17;94353.09;4376282;32;20302;-56
2022/04/25 02:53:39;;;;;;;0.03;0.03;;;;;;;10.88;87.95;94353.69;4389272;32;20272;-54
2022/04/25 02:56:08;;;;;;;0.10;0.10;;;;;;;10.80;87.30;94351.88;4374358;32;20184;-56
2022/04/25 02:58:41;;;;;;;0.87;0.10;;;;;;;10.85;87.81;94355.09;4385239;32;20197;-55
2022/04/25 03:01:07;;;;;;;0.03;0.03;;;;;;;10.94;88.47;94350.56;4385931;32;20234;-61
2022/04/25 03:03:35;;;;;;;0.10;0.10;;;;;;;10.72;87.13;94358.75;4365789;32;20204;-53
2022/04/25 03:06:06;;;;;;;0.00;0.00;;;;;;;10.83;87.57;94356.50;4397862;32;20226;-54
2022/04/25 03:08:36;;;;;;;0.10;0.10;;;;;;;10.74;87.78;94355.78;4374682;32;20224;-56
2022/04/25 03:11:09;;;;;;;0.37;0.20;;;;;;;10.95;88.03;94352.09;4387848;32;20188;-59
2022/04/25 03:13:36;;;;;;;0.20;0.10;;;;;;;11.12;87.23;94353.91;4387006;32;20241;-53
2022/04/25 03:16:11;;;;;;;0.20;0.10;;;;;;;11.23;86.13;94368.34;4390423;32;20180;-56
2022/04/25 03:18:37;;;;;;;0.20;0.20;;;;;;;11.01;86.44;94356.13;4387442;32;20188;-57
2022/04/25 03:21:09;;;;;;;0.30;0.30;;;;;;;10.97;87.30;94365.84;4368769;32;20188;-55
2022/04/25 03:23:36;;;;;;;0.70;0.20;;;;;;;10.92;87.82;94366.00;4385296;32;20215;-62
2022/04/25 03:26:08;;;;;;;0.20;0.20;;;;;;;10.74;87.05;94369.03;4344907;32;20264;-55
2022/04/25 03:28:34;;;;;;;0.10;0.10;;;;;;;10.73;87.40;94375.44;4367466;32;20211;-55
2022/04/25 03:31:00;;;;;;;0.13;0.13;;;;;;;10.80;87.58;94367.78;4385223;32;20189;-54
2022/04/25 03:33:31;;;;;;;0.53;0.20;;;;;;;10.93;86.75;94377.41;4388677;32;20192;-54
2022/04/25 03:35:57;;;;;;;0.23;0.13;;;;;;;11.10;87.35;94371.25;4390722;32;20314;-55
2022/04/25 03:38:23;;;;;;;0.10;0.10;;;;;;;11.09;86.53;94375.00;4390043;32;20189;-55
2022/04/25 03:40:48;;;;;;;0.00;0.00;;;;;;;11.12;86.33;94379.66;4389678;32;20187;-56
2022/04/25 03:43:17;;;;;;;0.17;0.17;;;;;;;11.01;86.96;94381.91;4372996;32;20189;-54
2022/04/25 03:45:47;;;;;;;0.60;0.20;;;;;;;10.75;88.17;94379.34;4385899;32;20244;-55
2022/04/25 03:48:13;;;;;;;0.20;0.20;;;;;;;10.56;87.92;94382.38;4363311;32;20220;-56
2022/04/25 03:50:40;;;;;;;0.20;0.20;;;;;;;10.66;87.94;94389.19;4372303;32;20214;-52
2022/04/25 03:53:10;;;;;;;0.10;0.10;;;;;;;10.93;86.86;94391.44;4375725;32;20202;-55
2022/04/25 03:58:22;;;;;;;1.03;0.93;;;;;;;11.11;87.12;94386.84;4389497;32;20219;-55
2022/04/25 04:00:48;;;;;;;0.10;0.10;;;;;;;11.08;87.28;94395.44;4388770;32;20184;-54
2022/04/25 04:03:23;;;;;;;0.63;0.17;;;;;;;10.94;86.15;94395.66;4387919;32;20192;-55
2022/04/25 04:05:50;;;;;;;0.20;0.20;;;;;;;10.95;86.56;94405.19;4381481;32;20244;-54
2022/04/25 04:08:20;;;;;;;1.27;0.43;;;;;;;10.78;86.97;94393.84;4342495;32;20234;-51
2022/04/25 04:10:45;;;;;;;0.57;0.20;;;;;;;11.01;87.61;94401.25;4370397;32;20214;-52
2022/04/25 04:13:12;;;;;;;0.20;0.20;;;;;;;10.91;87.25;94403.47;4392947;32;20200;-54
2022/04/25 04:15:40;;;;;;;1.03;0.20;;;;;;;10.81;87.04;94412.53;4373957;32;20244;-55
2022/04/25 04:18:05;;;;;;;0.60;0.43;;;;;;;10.79;87.77;94417.41;4370362;32;20197;-55
2022/04/25 04:20:33;;;;;;;0.37;0.30;;;;;;;10.52;88.25;94417.78;4373240;32;20184;-54
2022/04/25 04:22:58;;;;;;;0.73;0.10;;;;;;;10.69;89.25;94423.03;4392437;32;20249;-53
2022/04/25 04:25:25;;;;;;;0.20;0.20;;;;;;;10.60;88.40;94424.91;4391925;32;22002;-55
2022/04/25 04:27:55;;;;;;;0.20;0.20;;;;;;;10.76;88.62;94425.22;4401994;32;20192;-57
2022/04/25 04:30:22;;;;;;;0.50;0.50;;;;;;;10.90;88.41;94434.53;4380813;32;20202;-57
2022/04/25 04:32:51;;;;;;;0.30;0.30;;;;;;;10.97;87.66;94431.41;4387115;32;20184;-55
2022/04/25 04:36:17;;;;;;;0.30;0.30;;;;;;;10.64;86.98;94447.06;4365840;32;20244;-55
2022/04/25 04:38:11;;;;;;;0.30;0.30;;;;;;;10.74;87.69;94445.97;4391227;32;20192;-53
2022/04/25 04:40:36;;;;;;;0.20;0.20;;;;;;;10.86;88.18;94444.22;4357193;32;20244;-55
2022/04/25 04:43:03;;;;;;;0.40;0.40;;;;;;;10.96;87.17;94453.72;4384859;32;20215;-54
2022/04/25 04:45:35;;;;;;;0.40;0.40;;;;;;;11.18;87.16;94450.06;4389176;32;20237;-54
2022/04/25 04:48:00;;;;;;;0.37;0.37;;;;;;;11.12;86.68;94457.41;4389089;32;20237;-53
2022/04/25 04:50:25;;;;;;;0.70;0.70;;;;;;;11.09;86.21;94465.22;4375354;32;20196;-54
2022/04/25 04:52:59;;;;;;;0.40;0.40;;;;;;;11.13;86.63;94466.16;4386848;32;20203;-55
2022/04/25 04:55:25;;;;;;;1.50;0.50;;;;;;;10.94;86.74;94477.94;4389266;32;20243;-56
2022/04/25 04:57:51;;;;;;;0.77;0.77;;;;;;;11.13;87.42;94474.13;4364016;32;20267;-54
2022/04/25 05:00:17;;;;;;;0.50;0.50;;;;;;;11.02;86.93;94473.66;4362157;32;20192;-55
2022/04/25 05:02:44;;;;;;;0.63;0.50;;;;;;;11.13;86.54;94474.91;4359119;32;20266;-55
2022/04/25 05:05:14;;;;;;;1.63;1.53;;;;;;;11.20;86.87;94482.37;4367382;32;20245;-55
2022/04/25 05:07:41;;;;;;;0.70;0.70;;;;;;;11.16;86.43;94489.41;4376686;32;20184;-53
2022/04/25 05:10:07;;;;;;;0.83;0.83;;;;;;;11.14;86.64;94488.97;4388927;32;20207;-57
2022/04/25 05:12:51;;;;;;;0.70;0.70;;;;;;;11.16;86.63;94494.72;4384341;32;20212;-54
2022/04/25 05:15:18;;;;;;;1.13;0.67;;;;;;;11.24;86.67;94496.56;4378696;32;20202;-55
2022/04/25 05:17:44;;;;;;;1.10;0.70;;;;;;;11.43;86.46;94491.66;4369313;32;20234;-54
2022/04/25 05:20:13;;;;;;;5.30;0.80;;;;;;;11.56;85.38;94497.87;4390281;32;20204;-55
2022/04/25 05:22:48;;;;;;;2.40;1.20;;;;;;;11.45;85.61;94500.09;4389603;32;20201;-53
2022/04/25 05:25:18;;;;;;;2.83;0.80;;;;;;;11.31;85.65;94508.25;4373756;32;20229;-54
2022/04/25 05:27:48;;;;;;;1.67;1.10;;;;;;;11.20;85.92;94515.03;4365666;32;20223;-55
2022/04/25 05:30:17;;;;;;;1.43;1.00;;;;;;;11.14;86.42;94512.84;4367857;32;20204;-55
2022/04/25 05:32:51;;;;;;;4.50;1.30;;;;;;;11.24;86.74;94520.47;4364157;32;20236;-56
2022/04/25 05:35:20;;;;;;;4.63;1.67;;;;;;;11.10;87.44;94518.00;4301571;32;20220;-54
2022/04/25 05:37:47;;;;;;;4.70;1.57;;;;;;;11.22;86.67;94520.03;4328164;32;20207;-56
2022/04/25 05:40:16;;;;;;;5.63;1.50;;;;;;;11.03;87.37;94534.41;4369907;32;20227;-56
2022/04/25 05:42:46;;;;;;;4.03;1.77;;;;;;;11.31;87.70;94526.06;4371512;32;20277;-55
2022/04/25 05:45:12;;;;;;;2.97;1.50;;;;;;;11.32;87.15;94530.28;4382777;32;20188;-55
2022/04/25 05:47:40;;;;;;;6.27;1.90;;;;;;;11.46;87.27;94530.06;4388389;32;20192;-54
2022/04/25 05:52:55;;;;;;;1.90;1.70;;;;;;;11.62;85.52;94534.56;4389484;32;20304;-56
2022/04/25 05:55:20;;;;;;;3.87;1.70;;;;;;;11.57;85.81;94539.28;4383931;32;20212;-55
2022/04/25 05:57:46;;;;;;;3.80;1.67;;;;;;;11.51;86.17;94533.34;4390982;32;20234;-55
2022/04/25 06:00:14;;;;;;;2.10;1.90;;;;;;;11.70;85.95;94541.72;4384252;32;20175;-53
2022/04/25 06:02:41;;;;;;;4.03;2.23;;;;;;;11.69;86.14;94542.81;4356371;32;20196;-55
2022/04/25 06:05:11;;;;;;;2.27;2.07;;;;;;;11.70;85.84;94543.59;4375310;32;20206;-56
2022/04/25 06:07:43;;;;;;;3.60;2.30;;;;;;;11.74;85.20;94551.72;4377840;32;20215;-57
2022/04/25 06:10:25;;;;;;;3.73;2.87;;;;;;;11.74;85.10;94557.78;4373748;32;20254;-54
2022/04/25 06:12:52;;;;;;;3.37;3.03;;;;;;;11.83;85.76;94569.22;4384649;32;20209;-54
2022/04/25 06:15:24;;;;;;;4.20;3.77;;;;;;;11.72;85.87;94565.31;4350029;32;20196;-53
2022/04/25 06:17:54;;;;;;;3.80;3.40;;;;;;;11.68;84.88;94567.03;4363725;32;20212;-55
2022/04/25 06:20:21;;;;;;;3.37;3.07;;;;;;;11.70;85.01;94570.94;4395227;32;20227;-57
2022/04/25 06:23:06;;;;;;;3.30;3.03;;;;;;;11.61;86.25;94570.19;4365141;32;20217;-56
2022/04/25 06:25:32;;;;;;;3.67;3.37;;;;;;;11.65;86.20;94573.75;4372480;32;20215;-56
2022/04/25 06:28:00;;;;;;;5.30;4.20;;;;;;;11.67;85.40;94568.91;4383905;32;20211;-53
2022/04/25 06:30:32;;;;;;;11.13;8.10;;;;;;;11.76;85.75;94571.56;4373215;32;20232;-57
2022/04/25 06:33:02;;;;;;;5.77;5.30;;;;;;;11.73;85.07;94577.50;4391822;32;20306;-54
2022/04/25 06:35:29;;;;;;;6.10;5.60;;;;;;;11.79;84.44;94580.78;4382779;32;20196;-57
2022/04/25 06:37:56;;;;;;;6.83;5.90;;;;;;;11.80;84.71;94577.81;4391788;32;20306;-55
2022/04/25 06:40:23;;;;;;;7.23;6.57;;;;;;;11.67;84.70;94582.19;4390529;32;20206;-56
2022/04/25 06:42:51;;;;;;;6.50;5.43;;;;;;;11.72;84.66;94581.25;4381169;32;20184;-56
2022/04/25 06:45:17;;;;;;;7.80;7.10;;;;;;;11.61;84.86;94580.84;4399838;32;20256;-55
2022/04/25 06:47:45;;;;;;;6.67;6.17;;;;;;;11.72;83.92;94586.56;4351923;32;20240;-55
2022/04/25 06:50:12;;;;;;;7.40;6.80;;;;;;;11.60;83.90;94584.59;4347923;32;20206;-55
2022/04/25 06:52:38;;;;;;;8.93;8.23;;;;;;;11.50;83.45;94589.44;4373798;32;20200;-57
2022/04/25 06:55:07;;;;;;;7.93;7.40;;;;;;;11.34;83.22;94595.25;4367050;32;20196;-56
2022/04/25 06:57:59;;;;;;;9.00;8.30;;;;;;;11.32;83.51;94589.47;4333717;32;20200;-57
2022/04/25 07:00:27;;;;;;;7.67;7.13;;;;;;;11.01;85.12;94602.94;4381585;32;20283;-55
2022/04/25 07:02:55;;;;;;;7.63;7.03;;;;;;;10.95;86.00;94600.78;4382799;32;20204;-55
2022/04/25 07:05:21;;;;;;;8.07;7.03;;;;;;;11.08;86.44;94604.34;4390760;32;20211;-52
2022/04/25 07:07:49;;;;;;;7.73;7.13;;;;;;;11.12;85.62;94605.28;4369579;32;20214;-53
2022/04/25 07:10:14;;;;;;;7.60;7.00;;;;;;;11.13;85.54;94606.84;4388225;32;20199;-52
2022/04/25 07:12:42;;;;;;;8.30;7.13;;;;;;;11.13;85.91;94602.31;4365157;32;20197;-53
2022/04/25 07:15:11;;;;;;;7.17;6.50;;;;;;;11.31;85.83;94608.38;4376239;32;20196;-53
2022/04/25 07:17:37;;;;;;;6.70;6.07;;;;;;;11.32;85.55;94604.63;4377773;32;20193;-53
2022/04/25 07:20:02;;;;;;;11.10;7.20;;;;;;;11.41;85.36;94605.41;4391745;32;20202;-50
2022/04/25 07:30:43;;;;;;;7.57;7.07;;;;;;;11.56;82.36;94615.53;4390662;32;20198;-53
2022/04/25 07:33:13;;;;;;;8.53;7.90;;;;;;;11.59;82.13;94617.56;4352816;32;20189;-56
2022/04/25 07:35:39;;;;;;;7.53;6.80;;;;;;;11.62;81.88;94614.28;4344996;32;20200;-54
2022/04/25 07:38:06;;;;;;;8.47;7.60;;;;;;;11.77;81.43;94615.66;4376918;32;20196;-54
2022/04/25 07:40:33;;;;;;;7.53;6.93;;;;;;;11.61;80.28;94618.03;4398593;32;20180;-56
2022/04/25 07:43:04;;;;;;;7.90;7.27;;;;;;;11.59;79.53;94625.53;4386604;32;20204;-56
2022/04/25 07:45:32;;;;;;;8.17;7.57;;;;;;;11.77;78.93;94620.19;4373705;32;20180;-52
2022/04/25 07:47:58;;;;;;;8.23;7.63;;;;;;;12.01;77.60;94625.72;4390375;32;20237;-53
2022/04/25 07:50:25;;;;;;;8.07;7.53;;;;;;;12.31;77.00;94621.19;4387955;32;20204;-52
2022/04/25 07:52:54;;;;;;;7.73;7.17;;;;;;;12.19;76.50;94624.56;4360824;32;20255;-51
2022/04/25 07:55:21;;;;;;;8.10;7.40;;;;;;;12.22;76.27;94621.25;4381960;32;20226;-51
2022/04/25 07:57:46;;;;;;;8.03;7.53;;;;;;;12.32;76.37;94625.41;4356711;32;20192;-50
2022/04/25 08:00:13;;;;;;;8.43;7.73;;;;;;;12.61;75.36;94635.28;4374567;32;20227;-54
2022/04/25 08:02:39;;;;;;;8.03;7.33;;;;;;;12.47;74.26;94632.84;4378038;32;20242;-51
2022/04/25 08:05:06;;;;;;;7.97;7.27;;;;;;;12.67;73.93;94637.44;4376528;32;20179;-51
2022/04/25 08:07:32;;;;;;;7.20;6.63;;;;;;;12.61;74.37;94633.41;4358047;32;20203;-52
2022/04/25 08:09:57;;;;;;;6.80;6.40;;;;;;;12.86;73.42;94634.34;4366644;32;20287;-50
2022/04/25 08:18:04;;;;;;;8.60;7.90;;;;;;;12.97;73.26;94640.03;4390959;32;20226;-50
2022/04/25 08:20:37;;;;;;;7.57;6.83;;;;;;;12.71;71.71;94650.87;4368432;32;20266;-60
2022/04/25 08:23:11;;;;;;;7.20;6.70;;;;;;;12.73;72.93;94652.09;4363711;32;20203;-61
2022/04/25 08:25:38;;;;;;;7.20;6.50;;;;;;;12.81;71.23;94647.84;4356990;32;20211;-61
2022/04/25 08:28:05;;;;;;;8.37;7.67;;;;;;;12.98;69.98;94653.03;4378551;32;20188;-61
2022/04/25 08:30:34;;;;;;;8.07;7.40;;;;;;;13.03;69.78;94644.88;4378099;32;20255;-60
2022/04/25 08:33:01;;;;;;;7.53;7.03;;;;;;;12.72;70.62;94657.75;4369130;32;20240;-65
2022/04/25 08:35:29;;;;;;;7.40;6.80;;;;;;;13.24;69.40;94652.09;4385203;32;20184;-66
2022/04/25 08:37:56;;;;;;;7.17;6.40;;;;;;;13.24;68.80;94655.53;4386752;32;20196;-63
2022/04/25 08:40:23;;;;;;;6.50;6.10;;;;;;;13.33;68.01;94658.13;4340537;32;20188;-61
2022/04/25 08:42:53;;;;;;;6.90;6.40;;;;;;;13.63;67.69;94664.91;4360602;32;20196;-62
2022/04/25 08:45:22;;;;;;;8.83;6.43;;;;;;;13.56;66.41;94666.53;4377247;32;20192;-61
2022/04/25 08:48:04;;;;;;;6.87;6.33;;;;;;;13.34;65.84;94670.31;4360121;32;20201;-61
2022/04/25 08:50:32;;;;;;;7.80;6.17;;;;;;;13.59;67.11;94674.66;4353246;32;20196;-62
2022/04/25 08:52:59;;;;;;;6.73;6.17;;;;;;;13.74;67.32;94673.25;4381857;32;20302;-61
2022/04/25 08:55:29;;;;;;;7.30;6.70;;;;;;;13.79;65.21;94677.59;4379713;32;20232;-60
2022/04/25 08:57:57;;;;;;;6.40;5.93;;;;;;;13.66;65.33;94676.81;4386032;32;20283;-61
2022/04/25 09:00:25;;;;;;;9.87;4.30;;;;;;;13.77;65.50;94678.72;4388004;32;20227;-42
2022/04/25 09:02:51;;;;;;;4.93;4.37;;;;;;;14.48;72.91;94666.19;4369740;32;20189;-41
2022/04/25 09:05:18;;;;;;;5.10;4.60;;;;;;;16.71;63.30;94668.88;4356762;32;20188;-42
2022/04/25 09:07:45;;;;;;;5.43;4.93;;;;;;;17.87;58.56;94667.88;4357949;32;20298;-42
2022/04/25 09:10:14;;;;;;;5.23;4.87;;;;;;;18.08;55.95;94669.44;4348074;32;20204;-41
2022/04/25 09:12:42;;;;;;;5.00;4.27;;;;;;;18.12;55.19;94671.03;4363603;32;20250;-47
2022/04/25 09:15:10;;;;;;;5.47;4.60;;;;;;;18.47;54.55;94678.16;4358995;32;20212;-44
2022/04/25 09:17:39;;;;;;;6.20;5.80;;;;;;;18.31;52.77;94686.31;4392048;32;20244;-66
2022/04/25 09:20:09;;;;;;;6.20;5.63;;;;;;;16.77;52.00;94694.28;4399623;32;20211;-61
2022/04/25 09:22:39;;;;;;;6.07;5.67;;;;;;;16.12;55.28;94688.47;4390268;32;20188;-66
2022/04/25 09:25:15;;;;;;;7.07;6.57;;;;;;;15.24;58.37;94690.25;4388269;32;20242;-61
2022/04/25 09:27:42;;;;;;;6.70;6.03;;;;;;;15.03;59.19;94695.75;4360207;32;20184;-62
2022/04/25 09:30:16;;;;;;;5.37;5.07;;;;;;;14.74;59.10;94701.34;4383312;32;20241;-60
2022/04/25 09:32:51;;;;;;;6.00;5.60;;;;;;;14.63;58.67;94695.66;4376504;32;20207;-60
2022/04/25 09:35:38;;;;;;;5.73;5.43;;;;;;;14.41;59.32;94696.87;4400227;32;20200;-63
2022/04/25 09:38:05;;;;;;;6.70;6.30;;;;;;;14.14;61.54;94697.47;4383846;32;20203;-60
2022/04/25 09:40:38;;;;;;;6.23;5.67;;;;;;;14.08;61.87;94698.81;4371487;32;20188;-60
2022/04/25 09:43:11;;;;;;;6.50;6.00;;;;;;;14.15;62.58;94701.69;4370409;32;20204;-61
2022/04/25 09:45:44;;;;;;;6.60;6.20;;;;;;;14.07;62.58;94700.69;4376952;32;20240;-61
2022/04/25 09:48:23;;;;;;;6.53;6.03;;;;;;;14.15;61.28;94701.69;4390296;32;20247;-60
2022/04/25 09:51:23;;;;;;;6.23;5.83;;;;;;;13.97;61.25;94708.31;4391418;32;20214;-61
2022/04/25 09:53:54;;;;;;;7.63;7.03;;;;;;;13.81;63.09;94710.84;4352629;32;20191;-58
2022/04/25 09:56:22;;;;;;;7.90;7.27;;;;;;;13.63;64.18;94704.09;4365496;32;20254;-60
2022/04/25 09:59:08;;;;;;;7.93;7.33;;;;;;;13.77;64.25;94705.38;4391232;32;20208;-60
2022/04/25 10:01:40;;;;;;;9.17;8.30;;;;;;;13.96;63.41;94712.09;4355268;32;20184;-61
2022/04/25 10:04:30;;;;;;;7.90;7.40;;;;;;;13.96;64.27;94710.22;4395281;32;20281;-60
2022/04/25 10:06:56;;;;;;;8.10;7.60;;;;;;;14.30;62.90;94717.09;4379769;32;20284;-62
2022/04/25 10:09:26;;;;;;;8.03;7.53;;;;;;;14.18;65.69;94710.94;4371992;32;20216;-58
2022/04/25 10:11:56;;;;;;;8.13;7.50;;;;;;;14.39;64.22;94720.41;4370072;32;20267;-62
2022/04/25 10:14:25;;;;;;;6.97;6.57;;;;;;;14.36;63.20;94715.72;4370807;32;20246;-59
2022/04/25 10:16:54;;;;;;;9.60;7.90;;;;;;;14.39;63.95;94722.31;4373238;32;20188;-60
2022/04/25 10:19:20;;;;;;;7.53;6.87;;;;;;;13.99;62.61;94722.88;4377385;32;20229;-60
2022/04/25 10:21:47;;;;;;;7.33;6.83;;;;;;;14.00;62.77;94721.00;4382074;32;20189;-60
2022/04/25 10:24:18;;;;;;;7.13;6.60;;;;;;;13.82;61.46;94712.41;4371742;32;20252;-60
2022/04/25 10:26:44;;;;;;;7.10;6.70;;;;;;;13.77;60.81;94715.25;4390488;32;20232;-60
2022/04/25 10:29:13;;;;;;;6.67;6.23;;;;;;;13.94;61.63;94709.75;4382444;32;20222;-60
2022/04/25 10:31:43;;;;;;;6.87;6.47;;;;;;;14.06;61.30;94717.03;4367779;32;20192;-61
2022/04/25 10:34:10;;;;;;;7.23;6.63;;;;;;;14.22;61.52;94711.81;4388951;32;20184;-60
2022/04/25 10:36:44;;;;;;;6.83;6.33;;;;;;;14.34;61.03;94711.87;4388740;32;20202;-61
2022/04/25 10:39:20;;;;;;;6.50;6.10;;;;;;;14.54;61.20;94712.91;4388820;32;20188;-60
2022/04/25 10:44:53;;;;;;;6.17;5.87;;;;;;;14.56;59.91;94718.69;4392139;32;20214;-60
2022/04/25 10:47:25;;;;;;;6.60;6.20;;;;;;;14.46;58.20;94721.78;4375397;32;20236;-60
2022/04/25 10:49:56;;;;;;;7.37;6.83;;;;;;;14.43;60.13;94718.69;4389907;32;20204;-60
2022/04/25 10:52:34;;;;;;;7.77;7.13;;;;;;;14.59;59.58;94723.34;4378128;32;20231;-60
2022/04/25 10:55:20;;;;;;;8.00;7.30;;;;;;;14.80;60.26;94724.03;4343812;32;20226;-60
2022/04/25 10:58:03;;;;;;;7.27;6.77;;;;;;;14.76;58.34;94718.56;4376975;32;20316;-61
2022/04/25 11:00:38;;;;;;;8.30;7.70;;;;;;;14.72;57.89;94723.03;4379737;32;20212;-60
2022/04/25 11:03:07;;;;;;;7.77;7.27;;;;;;;14.66;58.31;94719.03;4388995;32;20247;-61
2022/04/25 11:05:33;;;;;;;8.00;7.30;;;;;;;14.53;59.20;94724.69;4389364;32;20195;-61
2022/04/25 11:08:32;;;;;;;7.50;7.00;;;;;;;14.66;59.81;94724.38;4389170;32;20207;-61
2022/04/25 11:10:58;;;;;;;7.10;6.60;;;;;;;15.01;58.94;94715.88;4347667;32;20196;-61
2022/04/25 11:13:28;;;;;;;7.20;6.80;;;;;;;14.99;56.61;94721.56;4368827;32;23075;-60
2022/04/25 11:15:56;;;;;;;6.60;6.10;;;;;;;15.01;56.35;94719.34;4336818;32;20266;-60
2022/04/25 11:18:37;;;;;;;6.30;5.93;;;;;;;14.66;55.62;94718.25;4392016;32;20216;-60
2022/04/25 11:21:14;;;;;;;6.17;5.77;;;;;;;14.69;56.31;94714.91;4371812;32;20199;-60
2022/04/25 11:23:45;;;;;;;6.27;5.97;;;;;;;14.75;56.35;94722.38;4368041;32;20204;-62
2022/04/25 11:26:36;;;;;;;6.63;6.30;;;;;;;14.71;57.11;94723.38;4361628;32;20249;-60
2022/04/25 11:29:08;;;;;;;7.90;7.30;;;;;;;14.90;58.15;94728.16;4371737;32;20192;-61
2022/04/25 11:31:36;;;;;;;8.33;7.73;;;;;;;14.84;56.59;94724.91;4349431;32;20196;-60
2022/04/25 11:34:22;;;;;;;8.23;7.63;;;;;;;14.77;58.08;94730.03;4362984;32;20197;-62
2022/04/25 11:36:48;;;;;;;7.13;6.43;;;;;;;14.99;57.95;94728.81;4385593;32;20196;-61
2022/04/25 11:41:59;;;;;;;7.10;6.60;;;;;;;15.20;56.56;94731.34;4377874;32;20324;-59
2022/04/25 11:44:25;;;;;;;6.93;6.43;;;;;;;15.11;55.58;94731.47;4373569;32;20260;-60
2022/04/25 11:46:53;;;;;;;6.47;6.03;;;;;;;15.10;55.96;94728.03;4373086;32;20248;-59
2022/04/25 11:49:31;;;;;;;6.23;5.83;;;;;;;14.86;55.63;94733.38;4382471;32;20193;-58
2022/04/25 11:52:00;;;;;;;6.50;6.10;;;;;;;14.92;55.24;94726.72;4377086;32;20291;-60
2022/04/25 11:54:33;;;;;;;5.90;5.60;;;;;;;14.96;55.64;94737.50;4375993;32;20283;-60
2022/04/25 11:57:02;;;;;;;5.80;5.50;;;;;;;15.01;54.67;94738.03;4380570;32;20203;-60
2022/04/25 11:59:29;;;;;;;6.63;6.23;;;;;;;14.93;54.60;94738.94;4366849;32;20231;-62
2022/04/25 12:01:55;;;;;;;6.60;6.20;;;;;;;14.97;54.17;94737.16;4359609;32;20232;-61
2022/04/25 12:04:27;;;;;;;6.77;6.27;;;;;;;15.16;55.22;94746.50;4316774;32;20240;-60
2022/04/25 12:06:58;;;;;;;6.67;6.27;;;;;;;15.08;53.96;94734.81;4372569;32;20207;-58
2022/04/25 12:15:34;;;;;;;6.40;6.00;;;;;;;15.15;54.25;94732.38;4385940;32;20207;-59
2022/04/25 12:15:38;;;;;;;8.80;8.03;;;;;;;15.07;54.79;94734.03;4389557;32;20239;-58
2022/04/25 12:18:23;;;;;;;8.37;7.77;;;;;;;15.36;54.69;94740.25;4365418;32;20218;-61
2022/04/25 12:20:57;;;;;;;8.30;7.70;;;;;;;15.15;54.66;94736.94;4398194;32;20232;-59